Time;durP1;ratioP1;P1;durP2;ratioP2;P2;SDS_P1;SDS_P2;PMS_P1;PMS_P2;Temp;Humidity;BMP_temperature;BMP_pressure;BME280_temperature;BME280_humidity;BME280_pressure;Samples;Min_cycle;Max_cycle;Signal;HPM_P1;HPM_P2
2023/08/01 00:03:03;;;;;;;1.35;1.00;;;;;;;17.28;68.90;98515.25;10506651;28;20076;-58
2023/08/01 00:08:05;;;;;;;1.25;0.90;;;;;;;17.28;68.98;98486.19;10509559;28;20102;-58
2023/08/01 00:13:08;;;;;;;2.10;1.42;;;;;;;17.42;68.78;98478.44;10508611;28;20138;-58
2023/08/01 00:18:10;;;;;;;3.47;1.17;;;;;;;17.38;69.01;98466.53;10507652;28;20135;-58
2023/08/01 00:23:12;;;;;;;2.17;1.17;;;;;;;17.24;69.17;98453.97;10487074;28;20407;-58
2023/08/01 00:28:14;;;;;;;2.55;1.27;;;;;;;17.28;69.48;98435.97;10509763;28;20127;-58
2023/08/01 00:33:16;;;;;;;0.80;0.68;;;;;;;17.38;69.25;98429.53;10488793;28;20419;-58
2023/08/01 00:38:18;;;;;;;1.67;1.00;;;;;;;17.40;69.01;98424.06;10507236;28;20048;-58
2023/08/01 00:43:20;;;;;;;2.38;1.10;;;;;;;17.32;69.22;98427.56;10471753;28;20124;-58
2023/08/01 00:48:22;;;;;;;1.02;0.80;;;;;;;17.38;69.37;98420.78;10509418;28;20094;-58
2023/08/01 00:53:24;;;;;;;0.63;0.60;;;;;;;17.33;69.44;98407.22;10490747;28;20139;-58
2023/08/01 00:58:26;;;;;;;1.50;0.90;;;;;;;17.28;69.89;98386.56;10495720;28;20058;-58
2023/08/01 01:03:29;;;;;;;1.25;0.80;;;;;;;17.32;70.12;98363.31;10513535;28;20051;-58
2023/08/01 01:08:32;;;;;;;1.88;0.95;;;;;;;17.21;70.37;98356.56;10489246;28;20051;-59
2023/08/01 01:13:35;;;;;;;1.00;0.70;;;;;;;17.22;70.14;98381.97;10509822;28;20666;-58
2023/08/01 01:18:37;;;;;;;1.27;0.90;;;;;;;17.21;70.24;98361.84;10493296;28;20504;-58
2023/08/01 01:23:40;;;;;;;0.75;0.68;;;;;;;17.15;70.50;98349.31;10494743;28;20048;-58
2023/08/01 01:28:43;;;;;;;0.88;0.88;;;;;;;17.20;70.26;98331.13;10492837;28;20144;-58
2023/08/01 01:33:46;;;;;;;1.00;0.60;;;;;;;17.24;70.22;98331.63;10512692;28;20145;-58
2023/08/01 01:38:48;;;;;;;1.85;0.70;;;;;;;17.29;70.58;98324.00;10491646;28;20158;-58
2023/08/01 01:43:50;;;;;;;0.40;0.40;;;;;;;17.46;69.79;98322.97;10494482;28;20043;-58
2023/08/01 01:48:52;;;;;;;0.90;0.60;;;;;;;17.44;70.16;98317.84;10490290;28;20055;-58
2023/08/01 01:53:54;;;;;;;0.70;0.47;;;;;;;17.51;69.69;98297.66;10486394;28;20408;-58
2023/08/01 01:58:57;;;;;;;0.98;0.60;;;;;;;17.59;69.66;98287.00;10492315;28;20515;-57
2023/08/01 02:03:59;;;;;;;0.52;0.50;;;;;;;17.58;69.57;98258.13;10494313;28;20400;-58
2023/08/01 02:09:01;;;;;;;0.55;0.50;;;;;;;17.52;69.61;98253.53;10500718;28;20152;-58
2023/08/01 02:14:04;;;;;;;1.02;0.57;;;;;;;17.48;69.95;98231.94;10500787;28;20536;-58
2023/08/01 02:19:06;;;;;;;0.55;0.50;;;;;;;17.50;69.93;98232.56;10518761;28;20536;-58
2023/08/01 02:24:08;;;;;;;1.15;0.70;;;;;;;17.54;69.89;98218.00;10495581;28;20056;-58
2023/08/01 02:29:10;;;;;;;1.23;0.65;;;;;;;17.55;69.56;98224.94;10500636;28;20597;-58
2023/08/01 02:34:12;;;;;;;3.40;0.80;;;;;;;17.54;69.96;98233.88;10495407;28;20416;-58
2023/08/01 02:39:14;;;;;;;1.00;0.85;;;;;;;17.52;69.82;98233.22;10466793;28;20036;-58
2023/08/01 02:44:16;;;;;;;0.82;0.68;;;;;;;17.52;69.82;98209.44;10514241;28;20052;-58
2023/08/01 02:49:18;;;;;;;1.08;0.57;;;;;;;17.51;69.96;98204.31;10516940;28;20502;-58
2023/08/01 02:54:20;;;;;;;1.58;0.40;;;;;;;17.49;69.89;98201.00;10513229;28;20043;-58
2023/08/01 02:59:23;;;;;;;0.47;0.47;;;;;;;17.48;70.37;98204.66;10496543;28;20133;-58
2023/08/01 03:04:26;;;;;;;0.28;0.28;;;;;;;17.49;70.25;98198.38;10491872;28;20498;-58
2023/08/01 03:09:47;;;;;;;0.63;0.52;;;;;;;17.25;71.78;98170.28;10494970;28;20055;-58
2023/08/01 03:14:49;;;;;;;0.35;0.30;;;;;;;17.19;71.43;98164.88;10507771;28;20541;-58
2023/08/01 03:19:51;;;;;;;1.40;0.40;;;;;;;17.16;71.48;98134.34;10510479;28;20109;-58
2023/08/01 03:24:53;;;;;;;0.25;0.25;;;;;;;17.21;71.71;98158.44;10507099;28;20134;-58
2023/08/01 03:29:56;;;;;;;0.70;0.50;;;;;;;17.26;71.44;98148.13;10491055;28;20089;-58
2023/08/01 03:34:58;;;;;;;0.85;0.43;;;;;;;17.24;71.43;98151.97;10491142;28;20116;-58
2023/08/01 03:40:00;;;;;;;0.85;0.50;;;;;;;17.15;72.48;98163.59;10507717;28;20055;-57
2023/08/01 03:45:05;;;;;;;0.55;0.30;;;;;;;17.14;72.41;98160.13;10507963;28;20093;-57
2023/08/01 03:50:07;;;;;;;0.28;0.28;;;;;;;17.16;72.21;98175.81;10489549;28;20142;-58
2023/08/01 03:55:09;;;;;;;0.30;0.30;;;;;;;17.12;73.06;98190.38;10485711;28;20048;-58
2023/08/01 04:00:14;;;;;;;0.40;0.28;;;;;;;17.22;72.17;98148.69;10507543;28;20047;-58
2023/08/01 04:05:18;;;;;;;1.75;0.65;;;;;;;17.23;72.04;98169.63;10490648;28;20035;-58
2023/08/01 04:10:22;;;;;;;0.90;0.50;;;;;;;17.30;72.14;98165.28;10508597;28;20032;-58
2023/08/01 04:15:24;;;;;;;0.40;0.40;;;;;;;17.21;72.02;98162.88;10509050;28;20051;-58
2023/08/01 04:20:26;;;;;;;0.57;0.30;;;;;;;17.26;72.09;98156.06;10507843;28;20393;-58
2023/08/01 04:25:28;;;;;;;0.32;0.30;;;;;;;17.29;72.03;98166.28;10512925;28;20032;-58
2023/08/01 04:30:30;;;;;;;0.22;0.20;;;;;;;17.30;71.77;98199.63;10516382;28;20499;-58
2023/08/01 04:35:32;;;;;;;1.05;0.45;;;;;;;17.38;72.00;98207.56;10497394;28;20106;-58
2023/08/01 04:40:34;;;;;;;0.57;0.28;;;;;;;17.18;72.09;98195.75;10515031;28;20217;-58
2023/08/01 04:45:36;;;;;;;0.10;0.10;;;;;;;17.11;71.94;98217.75;10497746;28;20058;-58
2023/08/01 04:50:38;;;;;;;0.10;0.10;;;;;;;16.95;71.82;98206.31;10516057;28;21216;-58
2023/08/01 04:55:40;;;;;;;0.20;0.20;;;;;;;16.97;71.54;98208.78;10516048;28;20047;-58
2023/08/01 05:00:42;;;;;;;0.10;0.10;;;;;;;16.97;71.22;98206.97;10514815;28;20411;-58
2023/08/01 05:05:44;;;;;;;0.40;0.28;;;;;;;16.99;70.67;98222.63;10497664;28;20511;-58
2023/08/01 05:10:46;;;;;;;0.32;0.30;;;;;;;16.98;70.54;98227.06;10513677;28;20036;-58
2023/08/01 05:15:48;;;;;;;0.93;0.32;;;;;;;16.93;70.31;98249.72;10496737;28;20040;-58
2023/08/01 05:20:50;;;;;;;0.80;0.40;;;;;;;16.90;69.85;98271.19;10513029;28;20039;-58
2023/08/01 05:25:52;;;;;;;0.70;0.50;;;;;;;16.88;69.31;98278.44;10514969;28;20052;-58
2023/08/01 05:30:54;;;;;;;1.08;0.63;;;;;;;16.76;69.11;98285.94;10495735;28;20301;-58
2023/08/01 05:35:57;;;;;;;0.85;0.57;;;;;;;16.61;69.17;98302.66;10494520;28;20385;-58
2023/08/01 05:40:59;;;;;;;0.57;0.52;;;;;;;16.62;68.92;98291.91;10513423;28;20040;-57
2023/08/01 05:46:01;;;;;;;0.75;0.68;;;;;;;16.75;68.98;98299.31;10513232;28;20135;-58
2023/08/01 05:51:03;;;;;;;1.38;0.75;;;;;;;16.79;68.49;98300.63;10514235;28;20500;-57
2023/08/01 05:56:05;;;;;;;1.00;0.57;;;;;;;16.79;68.17;98314.63;10511985;28;20051;-58
2023/08/01 06:01:09;;;;;;;1.05;0.75;;;;;;;16.83;67.89;98309.84;10494204;28;20048;-58
2023/08/01 06:06:10;;;;;;;1.25;0.80;;;;;;;16.89;67.70;98317.06;10514137;28;20139;-58
2023/08/01 06:11:12;;;;;;;0.60;0.60;;;;;;;17.10;67.45;98319.16;10510882;28;20127;-58
2023/08/01 06:16:15;;;;;;;0.77;0.68;;;;;;;17.24;67.17;98316.59;10483252;28;20136;-58
2023/08/01 06:21:17;;;;;;;0.75;0.60;;;;;;;17.43;66.61;98324.13;10488960;28;20063;-58
2023/08/01 06:26:19;;;;;;;0.95;0.60;;;;;;;17.62;65.97;98331.63;10504161;28;20047;-58
2023/08/01 06:31:21;;;;;;;2.65;0.98;;;;;;;17.84;65.71;98344.03;10505500;28;20125;-58
2023/08/01 06:36:23;;;;;;;1.15;0.75;;;;;;;17.97;65.21;98329.41;10505700;28;20047;-58
2023/08/01 06:41:25;;;;;;;1.08;0.70;;;;;;;18.05;65.00;98327.53;10506978;28;20123;-58
2023/08/01 06:46:28;;;;;;;3.13;1.10;;;;;;;18.27;64.71;98334.63;10501963;28;20040;-58
2023/08/01 06:51:30;;;;;;;0.68;0.60;;;;;;;18.36;63.83;98341.50;10485947;28;20516;-60
2023/08/01 06:56:32;;;;;;;0.75;0.60;;;;;;;18.35;63.88;98345.16;10518198;27;20054;-60
2023/08/01 07:01:34;;;;;;;0.50;0.50;;;;;;;18.34;63.96;98355.94;10487770;28;20039;-60
2023/08/01 07:06:37;;;;;;;0.80;0.68;;;;;;;18.39;63.66;98366.78;10503587;28;20500;-60
2023/08/01 07:11:40;;;;;;;1.17;0.93;;;;;;;18.48;63.41;98352.50;10481335;28;20064;-60
2023/08/01 07:16:42;;;;;;;0.80;0.77;;;;;;;18.63;63.47;98363.91;10496895;28;20091;-60
2023/08/01 07:21:46;;;;;;;1.08;0.80;;;;;;;18.66;63.08;98371.50;10504600;28;20048;-60
2023/08/01 07:26:48;;;;;;;1.77;1.10;;;;;;;18.56;62.66;98370.94;10501158;28;20507;-60
2023/08/01 07:31:50;;;;;;;0.70;0.65;;;;;;;18.56;62.72;98389.47;10499105;28;20337;-60
2023/08/01 07:36:52;;;;;;;1.75;0.80;;;;;;;18.80;61.99;98385.75;10499136;28;20056;-60
2023/08/01 07:41:56;;;;;;;1.55;0.80;;;;;;;20.04;60.24;98392.72;10484991;28;20033;-60
2023/08/01 07:46:58;;;;;;;1.85;0.93;;;;;;;20.23;58.59;98397.41;10506058;28;20176;-60
2023/08/01 07:52:00;;;;;;;1.90;0.77;;;;;;;21.33;56.60;98385.22;10507598;28;20517;-60
2023/08/01 07:57:02;;;;;;;3.30;1.02;;;;;;;22.22;54.71;98384.09;10506969;28;20131;-60
2023/08/01 08:02:04;;;;;;;1.25;0.90;;;;;;;22.94;52.33;98394.78;10502499;28;20127;-60
2023/08/01 08:07:06;;;;;;;1.25;0.82;;;;;;;23.77;49.25;98399.28;10489225;28;20048;-60
2023/08/01 08:12:08;;;;;;;1.23;0.80;;;;;;;24.01;48.42;98403.88;10524272;28;20052;-61
2023/08/01 08:17:10;;;;;;;1.80;1.00;;;;;;;23.76;48.37;98393.13;10510218;28;20761;-61
2023/08/01 08:22:12;;;;;;;1.25;0.90;;;;;;;24.36;47.16;98389.13;10490076;28;20054;-61
2023/08/01 08:27:14;;;;;;;1.67;0.88;;;;;;;23.92;47.71;98389.16;10509519;28;20044;-61
2023/08/01 08:32:16;;;;;;;1.27;0.77;;;;;;;25.17;42.93;98391.72;10509026;28;20058;-61
2023/08/01 08:37:18;;;;;;;1.58;0.90;;;;;;;24.14;46.00;98393.97;10509166;28;20052;-61
2023/08/01 08:42:20;;;;;;;1.42;0.90;;;;;;;23.24;46.68;98396.78;10508899;28;20161;-61
2023/08/01 08:47:25;;;;;;;1.55;0.80;;;;;;;22.62;48.03;98405.22;10509069;28;20140;-61
2023/08/01 08:52:28;;;;;;;1.63;1.00;;;;;;;21.82;49.49;98407.13;10508813;28;21307;-61
2023/08/01 08:57:30;;;;;;;1.98;0.98;;;;;;;22.30;49.84;98411.34;10509796;28;20066;-61
2023/08/01 09:02:33;;;;;;;1.58;0.90;;;;;;;21.59;50.89;98422.56;10508006;28;20134;-60
2023/08/01 09:07:39;;;;;;;1.52;0.82;;;;;;;20.51;53.61;98422.19;10509055;28;20059;-61
2023/08/01 09:12:41;;;;;;;1.23;0.90;;;;;;;20.37;54.50;98438.19;10529632;27;20048;-60
2023/08/01 09:17:51;;;;;;;2.60;1.20;;;;;;;21.09;54.41;98429.81;10516792;28;20083;-61
2023/08/01 09:22:53;;;;;;;1.67;0.90;;;;;;;21.90;53.32;98428.22;10515308;28;20044;-61
2023/08/01 09:27:55;;;;;;;1.45;0.93;;;;;;;21.35;53.79;98428.38;10516887;28;20040;-60
2023/08/01 09:32:57;;;;;;;2.00;0.90;;;;;;;20.85;54.50;98443.56;10515250;28;20097;-60
2023/08/01 09:38:00;;;;;;;1.70;0.90;;;;;;;21.43;53.54;98429.06;10515418;28;20059;-60
2023/08/01 09:43:02;;;;;;;2.53;1.48;;;;;;;22.29;51.52;98430.22;10514574;28;20580;-60
2023/08/01 09:48:05;;;;;;;1.40;1.02;;;;;;;23.35;49.06;98422.00;10515310;28;20050;-60
2023/08/01 09:53:08;;;;;;;2.25;1.00;;;;;;;24.29;46.88;98425.72;10495760;28;20408;-60
2023/08/01 09:58:13;;;;;;;1.65;0.90;;;;;;;23.21;45.59;98431.88;10514698;28;20048;-60
2023/08/01 10:03:15;;;;;;;3.10;1.08;;;;;;;22.08;48.45;98447.16;10468529;28;20371;-60
2023/08/01 10:08:21;;;;;;;3.20;0.90;;;;;;;22.14;48.12;98449.03;10506729;28;20056;-60
2023/08/01 10:13:24;;;;;;;2.45;0.95;;;;;;;22.04;47.80;98453.91;10491088;28;20097;-60
2023/08/01 10:18:29;;;;;;;3.53;1.00;;;;;;;21.66;49.10;98444.72;10512637;28;20056;-60
2023/08/01 10:23:33;;;;;;;1.70;1.02;;;;;;;22.14;48.86;98449.03;10508104;28;20059;-61
2023/08/01 10:28:37;;;;;;;1.83;1.10;;;;;;;22.60;47.84;98441.91;10512789;28;20110;-61
2023/08/01 10:33:41;;;;;;;2.25;0.98;;;;;;;22.76;47.23;98448.72;10527110;27;20056;-62
2023/08/01 10:38:48;;;;;;;1.63;0.88;;;;;;;21.48;49.93;98473.66;10513013;28;20779;-61
2023/08/01 10:43:50;;;;;;;2.22;1.10;;;;;;;20.57;52.34;98473.72;10511802;28;20052;-61
2023/08/01 10:48:52;;;;;;;2.35;0.93;;;;;;;20.91;52.00;98465.88;10511903;28;20158;-60
2023/08/01 10:53:54;;;;;;;2.63;0.90;;;;;;;21.48;51.88;98453.22;10511231;28;20043;-60
2023/08/01 10:58:58;;;;;;;1.48;1.00;;;;;;;22.36;50.75;98458.50;10510629;28;20451;-61
2023/08/01 11:04:00;;;;;;;1.10;0.73;;;;;;;22.57;48.34;98461.00;10510211;28;20052;-60
2023/08/01 11:09:02;;;;;;;1.10;0.98;;;;;;;22.89;47.50;98463.91;10493752;28;20208;-61
2023/08/01 11:14:04;;;;;;;2.80;1.10;;;;;;;23.01;46.03;98460.41;10507374;28;20040;-61
2023/08/01 11:19:20;;;;;;;2.10;0.80;;;;;;;23.13;46.21;98460.59;10509207;28;20209;-61
2023/08/01 11:24:23;;;;;;;1.63;0.88;;;;;;;22.91;46.52;98465.34;10505168;28;20396;-60
2023/08/01 11:29:25;;;;;;;1.45;0.88;;;;;;;22.98;47.96;98468.00;10495549;28;20078;-60
2023/08/01 11:34:27;;;;;;;1.00;0.65;;;;;;;22.80;47.58;98467.81;10496454;28;20040;-60
2023/08/01 11:39:30;;;;;;;2.70;0.80;;;;;;;22.66;46.30;98469.59;10491789;28;20056;-60
2023/08/01 11:44:32;;;;;;;2.40;0.90;;;;;;;23.08;46.21;98466.56;10471134;28;20136;-60
2023/08/01 11:49:34;;;;;;;1.05;0.73;;;;;;;23.35;45.24;98468.16;10485144;28;20071;-60
2023/08/01 11:54:46;;;;;;;0.77;0.70;;;;;;;23.26;44.54;98472.09;10487414;28;20044;-61
2023/08/01 11:59:50;;;;;;;0.55;0.50;;;;;;;22.99;45.25;98477.63;10470387;28;20132;-60
2023/08/01 12:04:53;;;;;;;2.92;0.98;;;;;;;22.93;45.64;98478.44;10504868;28;20054;-61
2023/08/01 12:10:00;;;;;;;1.95;0.90;;;;;;;23.28;43.43;98479.88;10503986;28;20169;-61
2023/08/01 12:15:03;;;;;;;2.97;1.45;;;;;;;23.16;43.46;98481.53;10507862;28;20036;-60
2023/08/01 12:20:05;;;;;;;0.40;0.40;;;;;;;23.23;43.83;98477.81;10499697;28;20087;-61
2023/08/01 12:25:08;;;;;;;1.20;0.73;;;;;;;23.83;43.48;98471.34;10519088;28;20044;-61
2023/08/01 12:30:10;;;;;;;1.98;0.70;;;;;;;23.85;43.18;98474.63;10502053;28;20048;-61
2023/08/01 12:35:12;;;;;;;2.53;0.80;;;;;;;23.63;43.37;98478.59;10468434;28;20040;-61
2023/08/01 12:40:15;;;;;;;1.85;0.93;;;;;;;23.71;43.15;98470.38;10499609;28;20048;-61
2023/08/01 12:45:17;;;;;;;2.17;0.98;;;;;;;24.17;41.88;98459.50;10486931;28;20040;-61
2023/08/01 12:50:19;;;;;;;1.67;1.13;;;;;;;24.02;41.78;98467.75;10508550;28;20109;-61
2023/08/01 12:55:21;;;;;;;1.92;0.80;;;;;;;23.45;43.00;98489.13;10491290;28;20515;-61
2023/08/01 13:00:23;;;;;;;1.95;0.95;;;;;;;23.23;43.52;98509.84;10525739;28;20204;-61
2023/08/01 13:05:25;;;;;;;2.80;1.02;;;;;;;23.32;44.99;98511.28;10504581;28;20193;-61
2023/08/01 13:10:31;;;;;;;1.83;1.05;;;;;;;23.49;43.55;98514.38;10507223;28;20054;-61
2023/08/01 13:15:33;;;;;;;1.23;0.90;;;;;;;23.56;43.93;98515.16;10505045;28;20496;-61
2023/08/01 13:20:36;;;;;;;2.42;0.88;;;;;;;23.88;43.77;98519.59;10490238;28;20032;-61
2023/08/01 13:25:38;;;;;;;2.05;0.90;;;;;;;23.73;43.03;98519.03;10505023;28;20166;-61
2023/08/01 13:30:40;;;;;;;1.48;0.68;;;;;;;23.75;43.24;98526.81;10476533;28;20151;-62
2023/08/01 13:35:42;;;;;;;1.75;0.85;;;;;;;23.47;41.45;98527.09;10493053;28;20205;-62
2023/08/01 13:40:44;;;;;;;1.13;0.50;;;;;;;23.74;41.87;98523.31;10500808;28;20581;-60
2023/08/01 13:45:46;;;;;;;4.30;1.33;;;;;;;23.84;41.97;98542.41;10505500;28;20075;-60
2023/08/01 13:50:48;;;;;;;1.45;0.90;;;;;;;23.59;42.59;98544.13;10506442;28;20327;-60
2023/08/01 13:55:51;;;;;;;1.60;0.70;;;;;;;23.26;43.15;98553.97;10487384;28;20048;-60
2023/08/01 14:00:53;;;;;;;2.92;0.80;;;;;;;22.96;44.74;98556.22;10507594;28;20404;-60
2023/08/01 14:05:55;;;;;;;3.13;1.20;;;;;;;22.46;47.81;98578.81;10510223;28;20543;-61
2023/08/01 14:10:58;;;;;;;3.53;1.05;;;;;;;21.95;49.93;98588.16;10507589;28;20036;-61
2023/08/01 14:16:01;;;;;;;1.48;0.80;;;;;;;21.40;52.77;98582.88;10509185;28;20455;-61
2023/08/01 14:21:05;;;;;;;1.65;0.90;;;;;;;21.87;53.65;98581.16;10506667;28;20044;-60
2023/08/01 14:26:07;;;;;;;1.30;0.80;;;;;;;21.16;54.06;98585.91;10509316;28;20190;-61
2023/08/01 14:31:09;;;;;;;1.38;0.60;;;;;;;20.88;53.70;98588.53;10506811;28;20174;-61
2023/08/01 14:36:12;;;;;;;0.70;0.47;;;;;;;20.85;53.57;98599.50;10508879;28;20051;-60
2023/08/01 14:41:14;;;;;;;1.70;0.65;;;;;;;21.20;52.09;98593.31;10503448;28;20137;-59
2023/08/01 14:46:36;;;;;;;1.88;0.85;;;;;;;21.49;51.45;98589.69;10491392;28;20054;-60
2023/08/01 14:51:39;;;;;;;0.65;0.50;;;;;;;21.60;51.35;98595.31;10506210;28;20410;-61
2023/08/01 14:56:41;;;;;;;3.90;0.77;;;;;;;21.62;51.54;98593.28;10508699;28;20501;-61
2023/08/01 15:01:43;;;;;;;1.45;0.80;;;;;;;21.53;51.57;98598.94;10502849;28;20043;-61
2023/08/01 15:06:45;;;;;;;1.80;0.75;;;;;;;21.51;52.81;98600.97;10499140;28;20047;-61
2023/08/01 15:11:48;;;;;;;1.17;0.70;;;;;;;21.52;52.34;98610.59;10502661;28;20043;-61
2023/08/01 15:16:50;;;;;;;0.52;0.52;;;;;;;21.25;52.56;98622.00;10470965;28;20058;-61
2023/08/01 15:21:52;;;;;;;1.27;0.70;;;;;;;20.95;52.78;98627.44;10503779;28;20063;-61
2023/08/01 15:26:54;;;;;;;0.70;0.63;;;;;;;20.13;54.72;98649.88;10504140;28;20067;-60
2023/08/01 15:31:56;;;;;;;3.05;0.90;;;;;;;19.72;56.27;98642.50;10503031;28;20044;-61
2023/08/01 15:51:51;;;;;;;1.73;0.80;;;;;;;18.56;59.43;98641.81;10502705;27;20175;-60
2023/08/01 15:56:53;;;;;;;0.57;0.57;;;;;;;18.93;59.63;98637.66;10500746;28;20055;-60
2023/08/01 16:01:55;;;;;;;1.75;0.98;;;;;;;19.22;59.18;98635.97;10494003;28;20047;-60
2023/08/01 16:25:07;;;;;;;1.05;0.70;;;;;;;18.77;61.47;98646.50;10538818;27;20202;-62
2023/08/01 16:30:10;;;;;;;1.60;0.60;;;;;;;19.43;60.18;98651.22;10502335;28;20653;-62
2023/08/01 16:35:13;;;;;;;0.65;0.63;;;;;;;19.62;59.08;98641.94;10498723;28;20135;-62
2023/08/01 16:40:15;;;;;;;1.17;0.90;;;;;;;19.61;59.29;98643.75;10501537;28;21885;-59
2023/08/01 16:45:17;;;;;;;1.55;0.90;;;;;;;19.69;59.14;98654.31;10501850;28;20043;-61
2023/08/01 16:50:20;;;;;;;1.67;0.90;;;;;;;19.60;58.99;98644.78;10499484;28;20189;-61
2023/08/01 16:55:22;;;;;;;0.85;0.77;;;;;;;20.10;58.44;98633.50;10500461;28;20086;-60
2023/08/01 17:00:24;;;;;;;1.60;0.70;;;;;;;20.90;56.94;98640.47;10507547;28;20187;-61
2023/08/01 17:05:26;;;;;;;1.67;0.80;;;;;;;21.09;55.78;98634.53;10485475;28;20048;-60
2023/08/01 17:10:30;;;;;;;1.42;0.93;;;;;;;21.14;54.96;98630.47;10494719;28;20046;-62
2023/08/01 17:15:33;;;;;;;1.17;0.70;;;;;;;20.78;55.21;98646.47;10500623;28;20036;-62
2023/08/01 17:20:39;;;;;;;1.38;0.80;;;;;;;20.56;55.04;98652.72;10498992;28;20751;-62
2023/08/01 17:30:43;;;;;;;1.65;1.02;;;;;;;20.10;55.03;98654.75;10537254;27;20182;-60
2023/08/01 17:35:45;;;;;;;1.58;0.65;;;;;;;19.75;55.64;98668.66;10527238;27;20048;-60
2023/08/01 17:40:47;;;;;;;1.05;0.70;;;;;;;19.62;55.85;98665.81;10541613;27;20040;-60
2023/08/01 17:45:49;;;;;;;1.10;0.55;;;;;;;19.55;55.78;98676.31;10522838;27;20052;-60
2023/08/01 17:50:51;;;;;;;1.58;0.70;;;;;;;19.44;55.81;98682.84;10507216;27;20044;-60
2023/08/01 17:55:53;;;;;;;1.45;0.77;;;;;;;19.25;56.06;98690.47;10542730;27;20198;-60
2023/08/01 18:00:55;;;;;;;2.05;0.50;;;;;;;19.11;56.38;98692.06;10545875;27;20767;-60
2023/08/01 18:06:09;;;;;;;1.90;0.80;;;;;;;19.00;56.15;98703.03;10524420;27;20092;-58
2023/08/01 18:11:16;;;;;;;2.45;0.90;;;;;;;19.02;56.01;98714.28;10522005;27;20510;-58
2023/08/01 18:16:20;;;;;;;1.60;0.73;;;;;;;19.01;56.72;98717.91;10521701;27;20055;-58
2023/08/01 18:21:22;;;;;;;4.50;0.98;;;;;;;18.76;57.38;98718.22;10548774;27;20628;-58
2023/08/01 18:26:25;;;;;;;4.50;0.90;;;;;;;18.80;58.05;98720.34;10529089;27;20055;-58
2023/08/01 18:31:27;;;;;;;2.90;0.80;;;;;;;18.45;58.83;98736.69;10544723;27;21226;-58
2023/08/01 18:36:30;;;;;;;3.78;1.52;;;;;;;18.23;59.66;98743.53;10542835;27;20055;-58
2023/08/01 18:41:33;;;;;;;0.98;0.60;;;;;;;18.22;59.71;98735.78;10516966;27;20052;-58
2023/08/01 18:46:35;;;;;;;3.40;0.90;;;;;;;18.20;60.12;98735.94;10513922;27;20193;-58
2023/08/01 18:51:38;;;;;;;2.92;0.75;;;;;;;18.26;59.71;98737.91;10519995;27;20385;-58
2023/08/01 18:56:40;;;;;;;2.30;0.95;;;;;;;18.28;59.67;98745.69;10512705;27;20097;-58
2023/08/01 19:02:29;;;;;;;2.33;0.80;;;;;;;18.29;60.04;98757.91;10503579;27;20175;-58
2023/08/01 19:07:32;;;;;;;0.70;0.70;;;;;;;18.26;59.87;98752.97;10504654;28;20048;-58
2023/08/01 19:12:34;;;;;;;1.20;0.85;;;;;;;18.19;59.60;98778.41;10501328;28;21152;-59
2023/08/01 19:17:36;;;;;;;2.95;0.60;;;;;;;18.19;59.31;98781.94;10502263;28;20181;-59
2023/08/01 19:22:40;;;;;;;3.28;0.65;;;;;;;18.12;59.23;98785.34;10481804;28;20044;-57
2023/08/01 19:27:43;;;;;;;1.00;0.70;;;;;;;17.97;59.12;98792.31;10499462;28;20049;-58
2023/08/01 19:32:45;;;;;;;1.60;1.08;;;;;;;17.97;58.55;98800.25;10513051;28;20052;-58
2023/08/01 19:37:47;;;;;;;1.65;1.15;;;;;;;18.03;58.30;98807.53;10499977;28;20052;-60
2023/08/01 19:42:50;;;;;;;0.73;0.60;;;;;;;18.02;58.31;98819.09;10492435;28;20086;-59
2023/08/01 19:47:52;;;;;;;3.25;1.55;;;;;;;18.00;58.32;98829.00;10516815;28;20382;-59
2023/08/01 19:52:54;;;;;;;4.25;1.10;;;;;;;18.05;58.18;98824.06;10529217;28;20048;-58
2023/08/01 19:57:57;;;;;;;1.33;0.90;;;;;;;18.12;58.72;98823.22;10522733;28;20059;-59
2023/08/01 20:03:00;;;;;;;1.65;0.90;;;;;;;18.12;58.59;98835.63;10514805;28;20043;-57
2023/08/01 20:08:03;;;;;;;1.40;0.80;;;;;;;17.96;59.42;98828.53;10499969;28;20373;-57
2023/08/01 20:13:05;;;;;;;2.72;0.80;;;;;;;17.89;59.99;98840.78;10497140;28;20521;-59
2023/08/01 20:18:08;;;;;;;1.38;0.90;;;;;;;17.81;60.57;98841.56;10492256;28;20047;-59
2023/08/01 20:23:11;;;;;;;0.82;0.68;;;;;;;17.48;60.69;98854.91;10484540;28;20044;-58
2023/08/01 20:28:13;;;;;;;0.75;0.70;;;;;;;16.95;61.98;98837.50;10486464;28;20076;-58
2023/08/01 20:33:16;;;;;;;2.25;0.80;;;;;;;16.87;63.07;98839.28;10483319;28;20143;-58
2023/08/01 20:38:18;;;;;;;1.15;0.70;;;;;;;17.18;63.18;98834.28;10454768;28;20041;-57
2023/08/01 20:43:22;;;;;;;2.70;0.80;;;;;;;17.25;62.72;98830.84;10477487;28;20090;-57
2023/08/01 20:48:24;;;;;;;0.80;0.77;;;;;;;17.01;63.18;98830.75;10454951;28;20052;-56
2023/08/01 20:53:26;;;;;;;1.92;1.10;;;;;;;16.93;63.47;98836.00;10488471;28;20045;-57
2023/08/01 20:58:29;;;;;;;2.65;0.65;;;;;;;16.82;63.42;98815.16;10474221;28;20167;-58
2023/08/01 21:03:31;;;;;;;1.50;0.80;;;;;;;16.75;63.81;98827.34;10487213;28;20551;-56
2023/08/01 21:08:33;;;;;;;2.28;1.65;;;;;;;16.66;64.08;98825.63;10472864;28;20051;-58
2023/08/01 21:13:35;;;;;;;0.80;0.80;;;;;;;16.80;64.30;98823.22;10472362;28;20051;-55
2023/08/01 21:18:37;;;;;;;3.03;1.10;;;;;;;16.83;64.61;98811.53;10476878;28;20330;-58
2023/08/01 21:23:40;;;;;;;2.92;1.15;;;;;;;17.01;64.33;98814.91;10454840;28;20233;-57
2023/08/01 21:28:42;;;;;;;1.55;0.85;;;;;;;16.84;64.85;98818.44;10471699;28;20133;-58
2023/08/01 21:33:44;;;;;;;1.58;1.00;;;;;;;16.96;65.24;98820.66;10471362;28;20044;-57
2023/08/01 21:38:46;;;;;;;0.80;0.77;;;;;;;17.12;65.10;98814.59;10465340;28;20445;-57
2023/08/01 21:43:48;;;;;;;3.40;1.35;;;;;;;17.16;64.60;98809.84;10469015;28;20052;-56
2023/08/01 21:48:50;;;;;;;1.38;0.82;;;;;;;17.11;64.92;98805.03;10481463;28;20452;-57
2023/08/01 21:53:52;;;;;;;1.38;0.80;;;;;;;16.99;65.24;98799.22;10477731;28;20037;-56
2023/08/01 21:58:54;;;;;;;1.75;0.75;;;;;;;16.80;65.35;98794.19;10467060;28;20056;-58
2023/08/01 22:03:56;;;;;;;2.85;1.27;;;;;;;16.93;65.49;98791.09;10466687;28;20458;-57
2023/08/01 22:08:58;;;;;;;6.28;1.48;;;;;;;17.09;64.97;98792.97;10467751;28;20051;-57
2023/08/01 22:14:00;;;;;;;1.75;0.88;;;;;;;17.05;64.90;98800.41;10468040;28;20048;-57
2023/08/01 22:19:02;;;;;;;0.65;0.57;;;;;;;17.04;64.88;98785.53;10469974;28;20657;-57
2023/08/01 22:24:04;;;;;;;0.82;0.60;;;;;;;17.00;65.16;98810.59;10465912;28;20122;-57
2023/08/01 22:29:06;;;;;;;0.93;0.80;;;;;;;17.07;65.30;98811.63;10465993;28;20135;-57
2023/08/01 22:34:10;;;;;;;2.17;0.80;;;;;;;17.15;65.01;98819.59;10464857;28;20041;-55
2023/08/01 22:39:14;;;;;;;3.15;1.10;;;;;;;17.23;64.76;98827.53;10472387;28;20052;-56
2023/08/01 22:44:15;;;;;;;1.90;1.00;;;;;;;17.19;64.86;98830.66;10468766;28;20051;-58
2023/08/01 22:49:18;;;;;;;3.92;1.00;;;;;;;17.10;64.84;98826.34;10463196;28;20072;-57
2023/08/01 22:54:20;;;;;;;3.10;1.10;;;;;;;17.07;65.10;98809.00;10467027;28;20028;-56
2023/08/01 22:59:22;;;;;;;1.58;1.00;;;;;;;16.91;65.42;98801.00;10469508;28;20045;-56
2023/08/01 23:04:24;;;;;;;3.97;1.38;;;;;;;16.92;65.28;98802.66;10470519;28;20114;-58
2023/08/01 23:09:26;;;;;;;1.85;1.05;;;;;;;16.88;65.30;98806.59;10469304;28;20423;-56
2023/08/01 23:14:28;;;;;;;3.25;1.05;;;;;;;16.91;65.79;98801.00;10470908;28;20040;-57
2023/08/01 23:19:30;;;;;;;3.00;1.02;;;;;;;16.96;65.77;98803.97;10471522;28;20500;-57
2023/08/01 23:24:32;;;;;;;3.88;1.50;;;;;;;16.98;65.54;98802.84;10471868;28;20051;-57
2023/08/01 23:29:34;;;;;;;4.65;1.20;;;;;;;16.98;65.86;98805.47;10473778;28;20040;-57
2023/08/01 23:34:36;;;;;;;1.88;1.13;;;;;;;16.85;65.80;98791.06;10478305;28;20296;-56
2023/08/01 23:39:38;;;;;;;1.70;1.00;;;;;;;16.93;65.73;98777.91;10449476;28;20088;-57
2023/08/01 23:44:40;;;;;;;2.22;0.90;;;;;;;16.87;65.54;98775.91;10469800;28;20300;-57
2023/08/01 23:49:42;;;;;;;3.30;1.67;;;;;;;16.87;65.92;98767.97;10475862;28;20055;-57
2023/08/01 23:54:44;;;;;;;1.75;1.20;;;;;;;16.82;65.84;98770.25;10475673;28;20076;-57
2023/08/01 23:59:46;;;;;;;1.15;0.90;;;;;;;16.69;66.23;98764.59;10476721;28;20083;-57
